Time;durP1;ratioP1;P1;durP2;ratioP2;P2;SDS_P1;SDS_P2;PMS_P1;PMS_P2;Temp;Humidity;BMP_temperature;BMP_pressure;BME280_temperature;BME280_humidity;BME280_pressure;Samples;Min_cycle;Max_cycle;Signal;HPM_P1;HPM_P2
2023/05/30 00:02:59;;;;;;;16.17;4.63;;;;;;;10.68;63.28;101316.34;10075343;29;20045;-79
2023/05/30 00:08:02;;;;;;;22.08;4.20;;;;;;;10.69;63.34;101318.91;10073920;29;20049;-80
2023/05/30 00:13:05;;;;;;;19.48;3.92;;;;;;;10.75;63.30;101317.63;10074017;29;20501;-79
2023/05/30 00:18:11;;;;;;;18.95;4.70;;;;;;;10.78;63.34;101325.50;10075564;29;20056;-79
2023/05/30 00:23:14;;;;;;;21.33;4.13;;;;;;;10.92;63.27;101320.06;10072258;29;20049;-80
2023/05/30 00:28:17;;;;;;;21.55;4.70;;;;;;;11.02;62.87;101329.19;10064377;29;20055;-79
2023/05/30 00:33:22;;;;;;;25.05;5.47;;;;;;;10.96;62.91;101318.88;10059266;29;20057;-79
2023/05/30 00:38:25;;;;;;;25.60;5.13;;;;;;;10.95;63.14;101321.69;10051997;29;20109;-79
2023/05/30 00:43:28;;;;;;;22.50;4.30;;;;;;;10.95;63.40;101329.75;10047180;29;20061;-79
2023/05/30 00:48:32;;;;;;;21.13;6.15;;;;;;;10.95;63.24;101324.38;10046567;29;20533;-80
2023/05/30 00:53:36;;;;;;;17.27;4.43;;;;;;;11.00;63.06;101323.09;10049615;29;20426;-79
2023/05/30 00:58:39;;;;;;;17.95;5.45;;;;;;;11.08;62.93;101327.94;10052882;29;20044;-79
2023/05/30 01:03:47;;;;;;;17.65;5.05;;;;;;;11.13;63.00;101328.50;10044042;29;20095;-79
2023/05/30 01:08:51;;;;;;;24.17;4.57;;;;;;;11.09;63.05;101318.91;10047998;29;20569;-79
2023/05/30 01:14:03;;;;;;;23.65;4.82;;;;;;;11.04;63.26;101318.34;10052417;29;20049;-79
2023/05/30 01:19:35;;;;;;;24.15;5.10;;;;;;;10.97;63.60;101309.84;10042687;29;20038;-80
2023/05/30 01:24:46;;;;;;;19.73;4.53;;;;;;;10.81;63.89;101312.72;10059365;29;20057;-79
2023/05/30 01:29:51;;;;;;;18.58;4.72;;;;;;;10.90;63.68;101319.28;10038446;29;20060;-79
2023/05/30 01:34:57;;;;;;;26.05;4.88;;;;;;;10.88;63.96;101310.47;10060378;29;20101;-80
2023/05/30 01:40:00;;;;;;;17.25;4.15;;;;;;;10.86;64.07;101317.78;10080975;29;20041;-80
2023/05/30 01:45:11;;;;;;;21.08;5.72;;;;;;;10.76;64.43;101320.22;10038420;29;20053;-79
2023/05/30 01:50:17;;;;;;;22.95;5.07;;;;;;;10.68;65.07;101321.72;10053046;29;20045;-79
2023/05/30 01:55:23;;;;;;;18.55;4.15;;;;;;;10.72;64.79;101337.50;10071523;29;20049;-79
2023/05/30 02:00:30;;;;;;;18.17;4.32;;;;;;;10.73;64.76;101333.00;10097284;29;20073;-80
2023/05/30 02:05:33;;;;;;;17.42;3.88;;;;;;;10.84;64.69;101341.22;10066566;29;20072;-80
2023/05/30 02:10:36;;;;;;;17.27;4.15;;;;;;;10.93;64.52;101342.41;10048547;29;20045;-80
2023/05/30 02:15:41;;;;;;;18.58;4.78;;;;;;;10.92;64.39;101344.25;10048584;29;20045;-79
2023/05/30 02:20:44;;;;;;;24.92;4.93;;;;;;;10.97;64.20;101344.81;10046675;29;20066;-79
2023/05/30 02:25:47;;;;;;;24.73;5.38;;;;;;;10.85;64.41;101351.00;10047895;29;20042;-79
2023/05/30 02:30:51;;;;;;;27.73;4.60;;;;;;;10.95;64.19;101354.78;10067943;29;20050;-79
2023/05/30 02:35:54;;;;;;;20.48;4.63;;;;;;;10.99;64.25;101356.28;10054708;29;20058;-79
2023/05/30 02:40:58;;;;;;;21.52;4.82;;;;;;;10.92;64.23;101354.16;10044283;29;20048;-79
2023/05/30 02:46:05;;;;;;;22.42;4.63;;;;;;;10.86;64.54;101352.75;10050929;29;20065;-80
2023/05/30 02:51:12;;;;;;;15.52;4.88;;;;;;;10.90;64.43;101356.94;10048905;29;20052;-80
2023/05/30 02:56:17;;;;;;;19.00;4.75;;;;;;;10.93;64.35;101362.09;10046627;29;20053;-79
2023/05/30 03:01:35;;;;;;;15.23;4.35;;;;;;;11.05;64.20;101365.78;10048451;29;20046;-80
2023/05/30 03:06:38;;;;;;;13.25;3.83;;;;;;;11.06;64.01;101364.81;10047539;29;20052;-79
2023/05/30 03:11:52;;;;;;;22.02;4.68;;;;;;;10.91;64.59;101361.31;10048250;29;20054;-80
2023/05/30 03:16:56;;;;;;;13.80;4.57;;;;;;;10.92;64.40;101360.38;10044673;29;20049;-80
2023/05/30 03:21:59;;;;;;;23.63;5.28;;;;;;;11.03;64.33;101356.97;10047770;29;20564;-78
2023/05/30 03:27:04;;;;;;;17.67;5.07;;;;;;;10.99;64.41;101374.25;10049962;29;20469;-79
2023/05/30 03:32:09;;;;;;;18.30;4.95;;;;;;;11.03;64.26;101375.78;10047208;29;20076;-79
2023/05/30 03:37:12;;;;;;;17.75;3.85;;;;;;;10.98;64.17;101368.03;10039234;29;20046;-79
2023/05/30 03:42:16;;;;;;;19.48;5.10;;;;;;;11.17;64.10;101378.44;10048750;29;20049;-79
2023/05/30 03:47:22;;;;;;;17.25;4.20;;;;;;;11.14;63.97;101386.72;10054276;29;20041;-80
2023/05/30 03:52:25;;;;;;;16.83;6.68;;;;;;;11.19;63.86;101389.06;10049304;29;20514;-80
2023/05/30 03:57:29;;;;;;;24.95;5.60;;;;;;;11.28;63.71;101391.16;10054405;29;20097;-80
2023/05/30 04:02:33;;;;;;;21.80;4.57;;;;;;;11.31;63.43;101392.78;10037052;29;20810;-81
2023/05/30 04:07:37;;;;;;;15.52;4.70;;;;;;;11.23;63.45;101398.69;10040120;29;20073;-80
2023/05/30 04:12:40;;;;;;;21.35;5.35;;;;;;;11.31;63.47;101403.53;10058015;29;20413;-80
2023/05/30 04:17:45;;;;;;;28.15;6.35;;;;;;;11.30;63.41;101402.69;10050535;29;20054;-80
2023/05/30 04:22:48;;;;;;;15.60;4.82;;;;;;;11.31;63.33;101400.84;10051495;29;20473;-80
2023/05/30 04:27:51;;;;;;;20.83;5.97;;;;;;;11.47;63.16;101406.91;10058631;29;20395;-81
2023/05/30 04:32:56;;;;;;;19.50;4.50;;;;;;;11.44;63.08;101399.91;10066877;29;20125;-81
2023/05/30 04:37:59;;;;;;;21.45;4.30;;;;;;;11.53;62.86;101411.00;10041609;29;20086;-79
2023/05/30 04:43:03;;;;;;;16.90;4.68;;;;;;;11.44;62.58;101415.19;10042692;29;20049;-79
2023/05/30 04:48:07;;;;;;;22.25;5.05;;;;;;;11.53;62.90;101414.56;10052372;29;20057;-79
2023/05/30 04:53:11;;;;;;;20.23;5.53;;;;;;;11.66;62.56;101423.50;10072699;29;20099;-79
2023/05/30 04:58:15;;;;;;;17.85;5.13;;;;;;;11.77;61.88;101419.22;10077530;29;20057;-79
2023/05/30 05:03:21;;;;;;;13.38;4.75;;;;;;;11.95;61.56;101417.91;10075345;29;20042;-79
2023/05/30 05:08:26;;;;;;;15.48;5.30;;;;;;;12.04;61.31;101424.47;10054688;29;20041;-80
2023/05/30 05:13:29;;;;;;;16.55;5.70;;;;;;;12.05;61.05;101427.06;10049970;29;20059;-79
2023/05/30 05:18:33;;;;;;;17.65;5.82;;;;;;;12.10;60.85;101432.13;10040965;29;20486;-81
2023/05/30 05:23:36;;;;;;;20.73;5.60;;;;;;;12.05;60.69;101431.59;10041169;29;20121;-80
2023/05/30 05:28:39;;;;;;;19.88;6.40;;;;;;;11.98;60.58;101443.75;10072115;29;20118;-80
2023/05/30 05:33:43;;;;;;;23.52;6.40;;;;;;;11.95;61.11;101437.59;10084410;29;20046;-80
2023/05/30 05:38:46;;;;;;;13.63;6.13;;;;;;;12.03;60.56;101445.16;10065131;29;20048;-80
2023/05/30 05:43:49;;;;;;;16.98;7.43;;;;;;;12.14;60.23;101439.00;10036702;29;20057;-79
2023/05/30 05:48:54;;;;;;;14.80;6.78;;;;;;;12.29;59.92;101442.50;10038700;29;20045;-80
2023/05/30 05:53:57;;;;;;;18.85;6.80;;;;;;;12.41;59.70;101432.66;10024140;29;20057;-79
2023/05/30 05:59:00;;;;;;;20.48;6.78;;;;;;;12.40;59.58;101447.97;10055193;29;20049;-79
2023/05/30 06:04:11;;;;;;;13.73;6.82;;;;;;;12.59;59.32;101445.66;10038676;29;20064;-80
2023/05/30 06:09:15;;;;;;;11.35;6.53;;;;;;;12.74;58.72;101450.91;10044662;29;20098;-79
2023/05/30 06:14:18;;;;;;;15.77;6.25;;;;;;;12.78;58.36;101450.56;10049569;29;20053;-79
2023/05/30 06:19:22;;;;;;;22.25;7.20;;;;;;;12.88;57.45;101437.25;10039036;29;20046;-80
2023/05/30 06:24:25;;;;;;;24.00;6.60;;;;;;;12.94;57.31;101444.88;10047860;29;20596;-80
2023/05/30 06:29:28;;;;;;;17.50;7.03;;;;;;;12.96;58.03;101445.63;10052917;29;20478;-79
2023/05/30 06:34:35;;;;;;;16.08;6.90;;;;;;;13.12;57.51;101445.34;10060507;29;20081;-78
2023/05/30 06:39:39;;;;;;;15.18;7.18;;;;;;;13.20;56.69;101447.47;10061314;29;20062;-79
2023/05/30 06:44:42;;;;;;;20.50;8.07;;;;;;;13.40;56.39;101444.16;10050769;29;20057;-80
2023/05/30 06:49:47;;;;;;;22.95;7.93;;;;;;;13.76;54.86;101438.72;10055170;29;20093;-81
2023/05/30 06:54:50;;;;;;;22.35;7.68;;;;;;;13.98;53.97;101451.41;10090122;29;20088;-82
2023/05/30 06:59:52;;;;;;;16.98;7.78;;;;;;;14.52;52.46;101439.91;10078848;29;20053;-80
2023/05/30 07:04:57;;;;;;;16.45;7.10;;;;;;;14.78;51.80;101445.88;10073232;29;20046;-82
2023/05/30 07:10:00;;;;;;;15.70;7.07;;;;;;;14.82;51.03;101440.09;10072970;29;20046;-82
2023/05/30 07:15:02;;;;;;;19.45;7.35;;;;;;;14.35;52.18;101450.22;10077037;29;20137;-82
2023/05/30 07:20:08;;;;;;;13.45;7.88;;;;;;;14.69;52.36;101444.81;10087729;29;20049;-82
2023/05/30 07:25:11;;;;;;;16.65;8.32;;;;;;;14.92;51.84;101442.03;10079304;29;20110;-81
2023/05/30 07:30:14;;;;;;;16.20;7.25;;;;;;;14.99;51.46;101452.22;10082898;29;20049;-81
2023/05/30 07:35:18;;;;;;;13.55;6.75;;;;;;;15.03;51.00;101450.16;10042631;29;20060;-79
2023/05/30 07:40:21;;;;;;;18.27;6.55;;;;;;;15.27;51.02;101452.63;10024224;29;20042;-83
2023/05/30 07:45:24;;;;;;;15.90;6.40;;;;;;;15.60;50.16;101457.06;10044372;29;20102;-81
2023/05/30 07:50:29;;;;;;;16.83;6.60;;;;;;;16.09;48.65;101458.22;10079550;29;20049;-80
2023/05/30 07:55:32;;;;;;;15.73;6.15;;;;;;;16.61;48.29;101452.78;10074461;29;20084;-81
2023/05/30 08:00:35;;;;;;;13.98;5.50;;;;;;;17.70;44.81;101442.75;10071774;29;20042;-79
2023/05/30 08:05:39;;;;;;;11.00;4.70;;;;;;;18.02;43.68;101434.28;10076136;29;20049;-79
2023/05/30 08:10:43;;;;;;;15.40;5.50;;;;;;;18.39;43.74;101430.69;10065245;29;20502;-80
2023/05/30 08:15:46;;;;;;;15.98;5.90;;;;;;;18.22;43.85;101431.50;10062781;29;20057;-79
2023/05/30 08:20:51;;;;;;;13.70;5.47;;;;;;;18.30;44.04;101439.78;10054525;29;20056;-79
2023/05/30 08:25:54;;;;;;;15.48;5.53;;;;;;;18.34;43.99;101433.84;10056269;29;20080;-79
2023/05/30 08:30:58;;;;;;;12.82;4.90;;;;;;;18.30;42.90;101439.78;10055682;29;20124;-80
2023/05/30 08:36:03;;;;;;;14.07;5.30;;;;;;;18.91;42.89;101433.72;10057541;29;20052;-79
2023/05/30 08:41:06;;;;;;;13.57;5.20;;;;;;;19.26;42.01;101440.22;10060102;29;20049;-79
2023/05/30 08:46:09;;;;;;;12.00;4.60;;;;;;;19.39;41.99;101440.69;10050996;29;20061;-79
2023/05/30 08:51:15;;;;;;;11.68;4.70;;;;;;;18.96;41.85;101431.41;10050689;29;20042;-81
2023/05/30 08:56:23;;;;;;;10.35;5.50;;;;;;;19.07;42.53;101433.03;10052735;29;20038;-79
2023/05/30 09:01:26;;;;;;;13.82;5.25;;;;;;;19.56;40.68;101435.41;10059827;29;20066;-79
2023/05/30 09:06:32;;;;;;;11.98;5.72;;;;;;;16.33;46.17;101436.28;10061252;29;20049;-79
2023/05/30 09:11:35;;;;;;;12.98;4.90;;;;;;;17.87;43.76;101427.56;10045759;29;20046;-80
2023/05/30 09:16:38;;;;;;;12.02;5.13;;;;;;;18.38;43.63;101426.28;10066639;29;20042;-79
2023/05/30 09:21:42;;;;;;;14.95;5.90;;;;;;;18.55;42.63;101424.59;10067330;29;20041;-79
2023/05/30 09:27:01;;;;;;;17.10;5.80;;;;;;;17.91;42.30;101429.84;10047070;29;20045;-79
2023/05/30 09:32:05;;;;;;;13.10;6.07;;;;;;;18.63;41.53;101422.00;10054607;29;20413;-79
2023/05/30 09:37:09;;;;;;;12.48;5.28;;;;;;;19.45;40.95;101426.41;10064850;29;20133;-79
2023/05/30 09:42:12;;;;;;;9.32;5.05;;;;;;;20.09;39.22;101426.22;10063347;29;20053;-79
2023/05/30 09:47:15;;;;;;;9.70;5.13;;;;;;;20.20;38.35;101425.06;10045156;29;20037;-79
2023/05/30 09:52:21;;;;;;;11.50;6.13;;;;;;;20.45;39.54;101423.34;10056395;29;20049;-80
2023/05/30 09:57:25;;;;;;;9.95;5.55;;;;;;;20.48;39.13;101423.88;10051530;29;20046;-79
2023/05/30 10:02:28;;;;;;;11.63;5.75;;;;;;;20.49;39.63;101427.47;10047925;29;20579;-79
2023/05/30 10:07:32;;;;;;;15.00;7.32;;;;;;;20.71;38.25;101424.13;10054536;29;20133;-80
2023/05/30 10:12:36;;;;;;;15.35;6.30;;;;;;;21.68;38.24;101424.44;10056160;29;20183;-79
2023/05/30 10:17:44;;;;;;;11.77;5.90;;;;;;;21.96;37.39;101421.34;10065902;29;20113;-79
2023/05/30 10:22:52;;;;;;;12.27;6.10;;;;;;;22.37;36.55;101408.38;10050076;29;20045;-79
2023/05/30 10:27:58;;;;;;;12.73;6.03;;;;;;;22.94;36.64;101412.72;10056301;29;20080;-80
2023/05/30 10:33:05;;;;;;;10.15;6.05;;;;;;;23.45;36.08;101415.81;10044797;29;20045;-79
2023/05/30 10:38:11;;;;;;;12.38;6.20;;;;;;;22.91;36.28;101407.63;10061383;29;20049;-80
2023/05/30 10:43:29;;;;;;;12.95;6.25;;;;;;;23.17;35.05;101399.91;10048703;29;20053;-78
2023/05/30 10:48:43;;;;;;;16.92;7.20;;;;;;;23.58;35.73;101407.78;10053026;29;20052;-79
2023/05/30 10:53:49;;;;;;;13.80;5.50;;;;;;;22.73;37.26;101408.72;10043854;29;20052;-79
2023/05/30 10:58:54;;;;;;;11.80;5.90;;;;;;;21.70;39.80;101405.13;10051092;29;20105;-79
2023/05/30 11:04:02;;;;;;;12.20;5.45;;;;;;;22.24;37.77;101400.75;10064695;29;20090;-79
2023/05/30 11:09:08;;;;;;;12.23;5.88;;;;;;;22.52;37.83;101401.16;10067541;29;20068;-79
2023/05/30 11:14:13;;;;;;;9.15;4.28;;;;;;;22.76;38.00;101391.09;10068532;29;20049;-79
2023/05/30 11:19:18;;;;;;;10.48;3.75;;;;;;;23.57;37.52;101386.06;10061197;29;20137;-79
2023/05/30 11:24:23;;;;;;;10.43;4.20;;;;;;;24.06;36.57;101391.91;10070687;29;20076;-79
2023/05/30 11:29:32;;;;;;;7.85;3.53;;;;;;;24.25;35.82;101392.38;10067428;29;20082;-81
2023/05/30 11:34:36;;;;;;;6.93;2.63;;;;;;;24.49;35.08;101383.84;10059614;29;20075;-78
2023/05/30 11:39:40;;;;;;;6.32;3.15;;;;;;;24.91;34.30;101365.72;10053474;29;20049;-78
2023/05/30 11:44:43;;;;;;;6.55;3.05;;;;;;;25.36;34.70;101366.38;10087227;29;20070;-78
2023/05/30 11:49:46;;;;;;;3.20;2.35;;;;;;;25.39;35.26;101359.63;10081136;29;20057;-78
2023/05/30 11:54:50;;;;;;;4.70;2.50;;;;;;;25.12;34.94;101364.03;10057029;29;20073;-78
2023/05/30 11:59:55;;;;;;;4.72;2.67;;;;;;;25.90;34.33;101375.06;10067528;29;20076;-78
2023/05/30 12:05:02;;;;;;;3.08;2.50;;;;;;;24.82;35.75;101377.00;10061299;29;20084;-78
2023/05/30 12:10:08;;;;;;;4.50;2.80;;;;;;;24.69;36.07;101381.34;10055617;29;20125;-78
2023/05/30 12:15:11;;;;;;;4.80;2.63;;;;;;;25.08;35.76;101373.75;10060727;29;20080;-78
2023/05/30 12:20:16;;;;;;;5.07;2.65;;;;;;;24.90;35.72;101369.53;10065052;29;20068;-78
2023/05/30 12:25:27;;;;;;;3.60;2.80;;;;;;;25.00;36.32;101365.59;10061468;29;20089;-78
2023/05/30 12:30:34;;;;;;;4.90;2.50;;;;;;;24.73;36.02;101357.06;10062716;29;20034;-79
2023/05/30 12:35:40;;;;;;;4.07;2.80;;;;;;;25.69;35.39;101362.22;10062394;29;20118;-78
2023/05/30 12:40:46;;;;;;;4.53;2.78;;;;;;;24.43;36.49;101359.03;10061354;29;20529;-77
2023/05/30 12:45:49;;;;;;;5.97;3.13;;;;;;;24.79;36.87;101355.44;10060189;29;20057;-78
2023/05/30 12:50:52;;;;;;;3.03;2.72;;;;;;;23.97;37.16;101370.22;10053093;29;20052;-78
2023/05/30 12:55:57;;;;;;;4.97;3.20;;;;;;;23.90;37.72;101366.53;10050364;29;20100;-78
2023/05/30 13:01:00;;;;;;;3.20;2.53;;;;;;;23.31;38.52;101359.91;10056487;29;20105;-78
2023/05/30 13:06:04;;;;;;;4.55;3.22;;;;;;;23.23;38.84;101370.94;10059662;29;20056;-78
2023/05/30 13:11:08;;;;;;;6.18;3.30;;;;;;;24.08;37.89;101361.53;10060073;29;20050;-79
2023/05/30 13:16:11;;;;;;;5.55;3.35;;;;;;;23.40;37.86;101371.66;10065560;29;20056;-78
2023/05/30 13:21:14;;;;;;;6.68;3.15;;;;;;;23.76;38.25;101377.31;10087579;29;20049;-78
2023/05/30 13:26:18;;;;;;;8.43;3.65;;;;;;;24.74;37.00;101373.38;10060210;29;20411;-78
2023/05/30 13:31:21;;;;;;;6.43;3.75;;;;;;;24.86;36.50;101367.34;10055158;29;20072;-78
2023/05/30 13:36:25;;;;;;;3.47;2.90;;;;;;;23.93;37.82;101369.75;10042303;29;20125;-78
2023/05/30 13:41:30;;;;;;;4.80;3.35;;;;;;;22.69;40.33;101352.63;10023054;29;20057;-78
2023/05/30 13:46:33;;;;;;;6.00;3.40;;;;;;;21.63;42.45;101362.06;10013567;29;20060;-78
2023/05/30 13:51:36;;;;;;;6.40;3.65;;;;;;;21.33;42.77;101354.56;10015536;29;20053;-78
2023/05/30 13:56:40;;;;;;;5.28;3.70;;;;;;;21.10;43.27;101362.63;10025812;29;20056;-78
2023/05/30 14:01:43;;;;;;;5.50;3.80;;;;;;;20.67;44.14;101361.84;10024343;29;20053;-78
2023/05/30 14:06:50;;;;;;;7.65;4.82;;;;;;;20.56;44.29;101365.72;10019580;29;20046;-77
2023/05/30 14:11:55;;;;;;;4.75;4.25;;;;;;;20.27;45.02;101372.44;10024505;29;20201;-80
2023/05/30 14:16:58;;;;;;;7.82;4.72;;;;;;;20.28;45.08;101363.22;10041214;29;20883;-79
2023/05/30 14:22:01;;;;;;;7.20;4.78;;;;;;;20.23;45.24;101367.47;10042160;29;20045;-79
2023/05/30 14:27:06;;;;;;;7.25;5.20;;;;;;;20.02;45.06;101355.09;10035730;29;20064;-79
2023/05/30 14:32:09;;;;;;;7.35;6.00;;;;;;;19.93;45.35;101361.53;10041019;29;20548;-80
2023/05/30 14:37:12;;;;;;;9.07;5.28;;;;;;;20.09;45.12;101353.41;10046969;29;20085;-78
2023/05/30 14:42:17;;;;;;;9.18;5.88;;;;;;;19.74;46.32;101368.06;10038729;29;21290;-80
2023/05/30 14:47:20;;;;;;;9.45;6.05;;;;;;;19.32;46.87;101352.41;10037594;29;20053;-79
2023/05/30 14:52:23;;;;;;;10.40;7.00;;;;;;;19.25;47.05;101348.59;10033602;29;20058;-81
2023/05/30 14:57:27;;;;;;;9.02;6.15;;;;;;;19.40;47.54;101354.34;10045461;29;20057;-78
2023/05/30 15:02:30;;;;;;;10.07;6.80;;;;;;;19.49;46.92;101350.66;10025695;29;20056;-78
2023/05/30 15:07:33;;;;;;;17.55;8.13;;;;;;;19.04;47.98;101345.38;10029251;29;20045;-78
2023/05/30 15:12:37;;;;;;;15.52;10.68;;;;;;;18.91;47.39;101343.03;10016688;29;21258;-79
2023/05/30 15:17:40;;;;;;;21.05;12.30;;;;;;;19.01;47.13;101354.72;10027285;29;20053;-78
2023/05/30 15:22:43;;;;;;;15.00;11.05;;;;;;;19.28;46.73;101344.69;10033849;29;20060;-81
2023/05/30 15:27:49;;;;;;;14.40;9.27;;;;;;;19.65;46.19;101339.91;10036636;29;20041;-79
2023/05/30 15:32:53;;;;;;;14.95;8.70;;;;;;;19.53;46.15;101337.56;10037030;29;20630;-80
2023/05/30 15:37:56;;;;;;;17.25;11.13;;;;;;;19.35;46.29;101340.34;10034784;29;20137;-79
2023/05/30 15:43:01;;;;;;;16.45;10.35;;;;;;;19.36;47.02;101342.91;10043079;29;20065;-80
2023/05/30 15:48:03;;;;;;;17.50;11.68;;;;;;;19.20;46.72;101338.19;10040175;29;20056;-80
2023/05/30 15:53:07;;;;;;;20.40;12.57;;;;;;;19.26;47.16;101338.59;10031686;29;20049;-79
2023/05/30 15:58:12;;;;;;;17.85;13.20;;;;;;;19.06;47.02;101344.22;10047427;29;20064;-82
2023/05/30 16:03:15;;;;;;;16.48;12.95;;;;;;;18.69;47.42;101349.75;10037355;29;20091;-80
2023/05/30 16:08:18;;;;;;;18.80;13.02;;;;;;;18.68;47.74;101337.19;10041579;29;20095;-80
2023/05/30 16:13:22;;;;;;;21.65;13.50;;;;;;;19.08;47.22;101335.88;10038580;29;20049;-80
2023/05/30 16:18:25;;;;;;;22.05;14.25;;;;;;;19.54;46.70;101339.28;10036772;29;20055;-79
2023/05/30 16:23:28;;;;;;;20.65;14.25;;;;;;;19.77;45.60;101334.16;10034615;29;20128;-81
2023/05/30 16:28:33;;;;;;;22.10;14.57;;;;;;;19.53;46.53;101338.44;10031692;29;20064;-79
2023/05/30 16:33:36;;;;;;;17.45;13.40;;;;;;;20.76;44.56;101330.78;10028355;29;20136;-80
2023/05/30 16:38:41;;;;;;;18.75;12.45;;;;;;;22.88;40.77;101323.91;10044958;29;20050;-79
2023/05/30 16:43:46;;;;;;;16.67;12.30;;;;;;;23.03;40.11;101321.22;10025637;29;20060;-79
2023/05/30 16:48:49;;;;;;;16.20;11.82;;;;;;;23.98;38.45;101317.06;10012354;29;20093;-78
2023/05/30 16:53:53;;;;;;;12.73;10.35;;;;;;;26.27;34.92;101316.84;10018343;29;20068;-78
2023/05/30 16:58:59;;;;;;;12.75;9.27;;;;;;;28.09;32.42;101311.19;10007384;29;20058;-78
2023/05/30 17:04:02;;;;;;;10.57;8.35;;;;;;;30.02;29.93;101294.75;10022391;29;20138;-80
2023/05/30 17:09:07;;;;;;;8.60;7.75;;;;;;;30.77;28.81;101306.56;10014142;29;20057;-77
2023/05/30 17:14:11;;;;;;;9.95;7.53;;;;;;;31.25;28.36;101305.63;10020792;29;20063;-79
2023/05/30 17:19:16;;;;;;;7.28;5.50;;;;;;;29.54;29.42;101309.34;10068068;29;20067;-78
2023/05/30 17:24:31;;;;;;;6.45;4.68;;;;;;;28.46;31.28;101310.34;10065982;29;20053;-79
2023/05/30 17:29:37;;;;;;;5.60;4.75;;;;;;;29.93;29.42;101310.00;10040834;29;20700;-81
2023/05/30 17:34:40;;;;;;;6.57;4.20;;;;;;;31.28;27.88;101316.22;10040418;29;20077;-80
2023/05/30 17:39:43;;;;;;;5.78;3.97;;;;;;;27.39;32.00;101319.97;10034994;29;20053;-80
2023/05/30 17:44:47;;;;;;;5.20;3.75;;;;;;;25.24;35.41;101323.97;10045195;29;20132;-78
2023/05/30 17:49:50;;;;;;;6.20;3.67;;;;;;;23.54;37.66;101334.31;10040096;29;20061;-81
2023/05/30 17:54:53;;;;;;;4.63;3.75;;;;;;;21.92;40.05;101327.00;10049671;29;21239;-79
2023/05/30 17:59:57;;;;;;;7.75;3.67;;;;;;;20.34;43.21;101332.56;10034935;29;20135;-79
2023/05/30 18:05:00;;;;;;;4.40;3.47;;;;;;;19.67;45.25;101337.03;10037029;29;20088;-79
2023/05/30 18:10:04;;;;;;;4.55;3.15;;;;;;;19.13;46.26;101330.81;10036891;29;20057;-81
2023/05/30 18:15:10;;;;;;;4.55;3.38;;;;;;;18.69;47.27;101344.31;10035060;29;20053;-79
2023/05/30 18:20:13;;;;;;;4.50;3.30;;;;;;;18.58;47.80;101342.69;10032304;29;20060;-79
2023/05/30 18:25:15;;;;;;;4.30;3.17;;;;;;;18.21;48.40;101346.34;10037907;29;20077;-79
2023/05/30 18:30:20;;;;;;;5.78;3.45;;;;;;;17.97;49.12;101348.72;10046180;29;20057;-80
2023/05/30 18:35:23;;;;;;;5.82;3.47;;;;;;;17.91;49.35;101353.75;10020436;29;21016;-80
2023/05/30 18:40:26;;;;;;;6.03;3.90;;;;;;;17.80;49.89;101359.38;10022755;29;20053;-80
2023/05/30 18:45:30;;;;;;;4.65;3.67;;;;;;;17.65;50.24;101355.38;10013207;29;20057;-81
2023/05/30 18:50:33;;;;;;;6.82;3.10;;;;;;;17.46;50.72;101359.00;10032489;29;20057;-82
2023/05/30 18:55:36;;;;;;;6.95;3.80;;;;;;;17.36;51.17;101361.75;10056861;29;20112;-79
2023/05/30 19:00:41;;;;;;;6.18;3.50;;;;;;;17.21;51.63;101353.19;10029793;29;20433;-80
2023/05/30 19:05:44;;;;;;;3.88;3.05;;;;;;;17.02;52.35;101350.44;10036187;29;20058;-82
2023/05/30 19:10:47;;;;;;;3.83;3.38;;;;;;;16.80;53.17;101368.72;10026955;29;20053;-78
2023/05/30 19:15:52;;;;;;;5.85;3.10;;;;;;;16.67;53.73;101373.56;10030907;29;20073;-79
2023/05/30 19:20:55;;;;;;;5.90;3.50;;;;;;;16.50;54.25;101368.81;10032684;29;20060;-79
2023/05/30 19:26:00;;;;;;;4.38;2.80;;;;;;;16.35;54.43;101381.91;10064934;29;20056;-81
2023/05/30 19:31:10;;;;;;;4.95;3.90;;;;;;;16.26;55.24;101371.88;10048322;29;20053;-79
2023/05/30 19:36:13;;;;;;;5.22;3.35;;;;;;;16.10;55.71;101358.84;10048994;29;20120;-79
2023/05/30 19:41:20;;;;;;;4.07;3.50;;;;;;;15.96;56.15;101376.28;10024565;29;20110;-81
2023/05/30 19:46:28;;;;;;;5.43;3.80;;;;;;;15.90;56.02;101387.69;10035728;29;20086;-82
2023/05/30 19:51:31;;;;;;;3.70;3.00;;;;;;;15.75;56.53;101381.75;10069803;29;20154;-82
2023/05/30 19:56:34;;;;;;;5.63;3.90;;;;;;;15.61;56.69;101387.53;10045327;29;20090;-83
2023/05/30 20:01:39;;;;;;;4.55;3.67;;;;;;;15.50;56.78;101383.03;10049248;29;20073;-79
2023/05/30 20:06:42;;;;;;;3.53;3.20;;;;;;;15.43;57.19;101390.81;10051516;29;20073;-79
2023/05/30 20:11:45;;;;;;;7.15;3.22;;;;;;;15.35;57.17;101392.47;10032524;29;20521;-78
2023/05/30 20:16:49;;;;;;;3.63;2.75;;;;;;;15.35;57.96;101387.06;10030623;29;20698;-79
2023/05/30 20:21:52;;;;;;;2.92;2.72;;;;;;;15.36;57.87;101394.16;10035758;29;20068;-79
2023/05/30 20:26:55;;;;;;;7.32;3.08;;;;;;;15.14;58.41;101386.97;10032483;29;21059;-79
2023/05/30 20:32:00;;;;;;;3.92;2.97;;;;;;;14.90;59.00;101379.97;10050408;29;20076;-79
2023/05/30 20:37:03;;;;;;;5.03;3.13;;;;;;;14.86;59.34;101381.19;10053776;29;20057;-83
2023/05/30 20:42:07;;;;;;;5.93;3.10;;;;;;;14.89;59.14;101385.50;10042574;29;20132;-81
2023/05/30 20:47:11;;;;;;;3.63;2.70;;;;;;;14.82;59.49;101380.59;10036971;29;20149;-80
2023/05/30 20:52:15;;;;;;;5.22;3.08;;;;;;;14.74;59.84;101384.94;10035387;29;20053;-79
2023/05/30 20:57:20;;;;;;;4.40;3.40;;;;;;;14.68;59.83;101382.75;10025695;29;20054;-79
2023/05/30 21:09:02;;;;;;;4.35;2.90;;;;;;;14.54;60.44;101387.44;10091462;29;20053;-76
2023/05/30 21:14:05;;;;;;;5.95;3.40;;;;;;;14.47;60.89;101390.75;10089564;29;20041;-78
2023/05/30 21:19:09;;;;;;;3.72;3.22;;;;;;;14.40;61.17;101392.25;10091380;29;20041;-74
2023/05/30 21:24:13;;;;;;;3.22;2.85;;;;;;;14.32;61.44;101396.41;10090136;29;20044;-77
2023/05/30 21:29:16;;;;;;;3.72;3.33;;;;;;;14.25;61.72;101405.13;10083948;29;20053;-75
2023/05/30 21:34:19;;;;;;;4.72;3.17;;;;;;;14.21;61.85;101401.81;10097148;29;20044;-76
2023/05/30 21:39:23;;;;;;;5.65;4.20;;;;;;;14.15;62.20;101399.59;10109269;29;20053;-75
2023/05/30 21:44:26;;;;;;;4.80;3.60;;;;;;;14.02;62.38;101406.97;10102915;29;20072;-77
2023/05/30 21:49:29;;;;;;;5.68;3.92;;;;;;;13.94;62.67;101399.50;10083495;29;20053;-77
2023/05/30 21:54:39;;;;;;;5.60;4.15;;;;;;;13.93;62.72;101409.44;10101703;29;20053;-76
2023/05/30 21:59:41;;;;;;;3.97;3.45;;;;;;;13.85;62.89;101400.19;10094786;29;20037;-77
2023/05/30 22:04:44;;;;;;;5.35;4.57;;;;;;;13.81;63.30;101413.09;10087711;29;20041;-77
2023/05/30 22:09:48;;;;;;;6.90;5.22;;;;;;;13.77;63.07;101406.22;10096441;29;20457;-76
2023/05/30 22:14:51;;;;;;;7.57;4.72;;;;;;;13.65;63.61;101399.91;10095886;29;20520;-78
2023/05/30 22:19:54;;;;;;;4.47;3.85;;;;;;;13.64;63.77;101406.31;10098678;29;20124;-77
2023/05/30 22:24:59;;;;;;;4.90;3.95;;;;;;;13.57;63.92;101399.66;10105286;29;20504;-76
2023/05/30 22:30:02;;;;;;;4.63;4.22;;;;;;;13.49;64.11;101402.97;10097863;29;20053;-77
2023/05/30 22:35:05;;;;;;;5.28;4.43;;;;;;;13.54;64.10;101393.66;10081720;29;20520;-77
2023/05/30 22:40:10;;;;;;;6.82;4.60;;;;;;;13.49;64.07;101397.59;10095492;29;20048;-77
2023/05/30 22:45:13;;;;;;;5.00;4.30;;;;;;;13.43;64.13;101398.03;10093296;29;20053;-78
2023/05/30 22:50:16;;;;;;;5.82;4.32;;;;;;;13.42;64.20;101401.72;10094478;29;20041;-77
2023/05/30 22:55:20;;;;;;;4.93;4.43;;;;;;;13.28;64.36;101401.88;10094143;29;20052;-77
2023/05/30 23:00:24;;;;;;;6.60;4.40;;;;;;;13.32;64.57;101399.81;10094692;29;20076;-76
2023/05/30 23:05:28;;;;;;;8.10;4.68;;;;;;;13.25;64.62;101397.59;10094478;29;20115;-78
2023/05/30 23:10:35;;;;;;;5.57;4.38;;;;;;;13.14;64.43;101396.69;10099920;29;20065;-76
2023/05/30 23:15:39;;;;;;;6.70;4.97;;;;;;;13.05;65.13;101392.84;10098415;29;20556;-79